Time;durP1;ratioP1;P1;durP2;ratioP2;P2;SDS_P1;SDS_P2;PMS_P1;PMS_P2;Temp;Humidity;BMP_temperature;BMP_pressure;BME280_temperature;BME280_humidity;BME280_pressure;Samples;Min_cycle;Max_cycle;Signal;HPM_P1;HPM_P2
2023/04/08 00:01:04;;;;;;;5.67;3.57;;;6.00;99.90;;;;;;4196054;28;20483;-70
2023/04/08 00:03:06;;;;;;;5.43;3.70;;;6.00;99.90;;;;;;4200885;28;21063;-70
2023/04/08 00:05:08;;;;;;;4.63;3.00;;;6.00;99.90;;;;;;4198368;28;20478;-69
2023/04/08 00:07:12;;;;;;;5.40;3.20;;;6.00;99.90;;;;;;4204473;28;20470;-70
2023/04/08 00:09:14;;;;;;;5.47;3.30;;;6.00;99.90;;;;;;4202703;28;20455;-70
2023/04/08 00:11:16;;;;;;;5.90;3.13;;;6.00;99.90;;;;;;4201648;28;20460;-69
2023/04/08 00:13:18;;;;;;;5.03;3.03;;;6.00;99.90;;;;;;4198456;28;20540;-70
2023/04/08 00:15:19;;;;;;;5.60;3.30;;;6.00;99.90;;;;;;4202688;28;21114;-70
2023/04/08 00:17:21;;;;;;;5.80;3.33;;;5.90;99.90;;;;;;4205676;28;20507;-71
2023/04/08 00:19:24;;;;;;;6.13;3.63;;;5.90;99.90;;;;;;4204350;28;20458;-70
2023/04/08 00:21:26;;;;;;;6.07;3.50;;;5.90;99.90;;;;;;4202965;28;20568;-71
2023/04/08 00:23:29;;;;;;;4.97;3.27;;;5.90;99.90;;;;;;4201591;28;20912;-72
2023/04/08 00:25:31;;;;;;;5.83;3.60;;;5.90;99.90;;;;;;4196036;28;20519;-70
2023/04/08 00:27:33;;;;;;;5.60;3.70;;;5.90;99.90;;;;;;4203792;28;20508;-70
2023/04/08 00:29:35;;;;;;;5.03;3.27;;;5.90;99.90;;;;;;4203813;28;20455;-71
2023/04/08 00:31:37;;;;;;;6.70;3.30;;;5.90;99.90;;;;;;4194805;28;20443;-70
2023/04/08 00:33:38;;;;;;;6.00;3.23;;;5.90;99.90;;;;;;4204942;28;20560;-70
2023/04/08 00:35:40;;;;;;;5.50;3.27;;;5.90;99.90;;;;;;4205884;28;20481;-71
2023/04/08 00:37:42;;;;;;;5.53;3.57;;;5.90;99.90;;;;;;4200536;28;20570;-70
2023/04/08 00:39:45;;;;;;;5.27;3.40;;;5.90;99.90;;;;;;4202024;28;20497;-71
2023/04/08 00:41:47;;;;;;;5.07;3.57;;;5.90;99.90;;;;;;4199809;28;20871;-70
2023/04/08 00:43:49;;;;;;;5.87;3.77;;;5.80;99.90;;;;;;4203950;28;20511;-70
2023/04/08 00:45:51;;;;;;;5.27;3.47;;;5.80;99.90;;;;;;4200143;28;20492;-71
2023/04/08 00:47:53;;;;;;;5.90;3.20;;;5.80;99.90;;;;;;4201198;28;20459;-71
2023/04/08 00:49:55;;;;;;;5.43;3.63;;;5.80;99.90;;;;;;4203490;28;20497;-70
2023/04/08 00:51:57;;;;;;;5.93;3.43;;;5.80;99.90;;;;;;4204226;28;20457;-69
2023/04/08 00:53:59;;;;;;;6.03;3.87;;;5.80;99.90;;;;;;4204672;28;20467;-71
2023/04/08 00:56:02;;;;;;;6.83;3.97;;;5.80;99.90;;;;;;4198209;28;20490;-71
2023/04/08 00:58:04;;;;;;;5.13;3.70;;;5.80;99.90;;;;;;4201160;28;20533;-70
2023/04/08 01:00:08;;;;;;;4.93;3.57;;;5.80;99.90;;;;;;4209218;28;21006;-69
2023/04/08 01:02:17;;;;;;;7.20;4.20;;;5.80;99.90;;;;;;4205533;28;20491;-70
2023/04/08 01:04:28;;;;;;;6.30;3.80;;;5.80;99.90;;;;;;4202440;28;20467;-70
2023/04/08 01:06:41;;;;;;;6.17;3.83;;;5.80;99.90;;;;;;4202407;28;20476;-70
2023/04/08 01:08:44;;;;;;;5.83;3.53;;;5.80;99.90;;;;;;4208231;28;20467;-70
2023/04/08 01:10:51;;;;;;;8.10;4.07;;;5.80;99.90;;;;;;4208237;28;21021;-70
2023/04/08 01:12:58;;;;;;;7.20;3.73;;;5.80;99.90;;;;;;4204371;28;20526;-71
2023/04/08 01:15:04;;;;;;;6.03;3.83;;;5.70;99.90;;;;;;4200183;28;20461;-70
2023/04/08 01:17:07;;;;;;;6.13;3.40;;;5.80;99.90;;;;;;4204346;28;20516;-71
2023/04/08 01:19:14;;;;;;;7.70;4.27;;;5.80;99.90;;;;;;4208485;28;20460;-70
2023/04/08 01:21:18;;;;;;;6.07;3.77;;;5.70;99.90;;;;;;4203460;28;20497;-70
2023/04/08 01:23:30;;;;;;;6.97;3.70;;;5.70;99.90;;;;;;4203072;28;20484;-71
2023/04/08 01:25:36;;;;;;;5.67;3.50;;;5.70;99.90;;;;;;4206221;28;20571;-70
2023/04/08 01:27:40;;;;;;;6.97;4.07;;;5.70;99.90;;;;;;4204223;28;20449;-70
2023/04/08 01:29:43;;;;;;;5.17;3.37;;;5.70;99.90;;;;;;4205967;28;20511;-69
2023/04/08 01:31:47;;;;;;;7.37;3.57;;;5.70;99.90;;;;;;4204148;28;20472;-69
2023/04/08 01:33:51;;;;;;;6.47;3.50;;;5.70;99.90;;;;;;4200615;28;20461;-70
2023/04/08 01:35:55;;;;;;;6.57;4.07;;;5.70;99.90;;;;;;4206684;28;20995;-70
2023/04/08 01:37:59;;;;;;;5.17;3.40;;;5.70;99.90;;;;;;4209310;28;20464;-70
2023/04/08 01:40:02;;;;;;;5.57;3.53;;;5.70;99.90;;;;;;4204400;28;20450;-70
2023/04/08 01:42:05;;;;;;;6.73;3.40;;;5.70;99.90;;;;;;4201702;28;20564;-71
2023/04/08 01:44:10;;;;;;;6.10;3.53;;;5.70;99.90;;;;;;4205506;28;20457;-70
2023/04/08 01:46:13;;;;;;;5.83;2.93;;;5.70;99.90;;;;;;4208543;28;20495;-69
2023/04/08 01:48:15;;;;;;;6.03;3.67;;;5.70;99.90;;;;;;4208195;28;20557;-70
2023/04/08 01:50:18;;;;;;;5.90;3.57;;;5.70;99.90;;;;;;4206184;28;20508;-70
2023/04/08 01:52:22;;;;;;;5.97;3.60;;;5.70;99.90;;;;;;4206792;28;20457;-69
2023/04/08 01:54:24;;;;;;;5.37;3.23;;;5.70;99.90;;;;;;4209303;28;20472;-70
2023/04/08 01:56:29;;;;;;;5.23;3.30;;;5.70;99.90;;;;;;4200816;28;20474;-70
2023/04/08 01:58:38;;;;;;;5.43;3.43;;;5.70;99.90;;;;;;4198247;28;20516;-71
2023/04/08 02:00:42;;;;;;;4.77;2.90;;;5.70;99.90;;;;;;4205239;28;20458;-70
2023/04/08 02:02:46;;;;;;;6.40;3.03;;;5.70;99.90;;;;;;4202979;28;20486;-69
2023/04/08 02:04:48;;;;;;;4.57;2.90;;;5.70;99.90;;;;;;4207163;28;20470;-70
2023/04/08 02:06:50;;;;;;;6.07;3.03;;;5.70;99.90;;;;;;4203971;28;20525;-69
2023/04/08 02:08:53;;;;;;;4.93;3.13;;;5.70;99.90;;;;;;4203679;28;20497;-69
2023/04/08 02:10:55;;;;;;;5.97;3.63;;;5.70;99.90;;;;;;4207097;28;20471;-71
2023/04/08 02:12:57;;;;;;;6.57;3.50;;;5.70;99.90;;;;;;4201348;28;20540;-70
2023/04/08 02:15:00;;;;;;;6.10;3.87;;;5.70;99.90;;;;;;4202042;28;20469;-71
2023/04/08 02:17:11;;;;;;;8.67;4.50;;;5.70;99.90;;;;;;4200221;28;20559;-71
2023/04/08 02:19:19;;;;;;;9.63;4.63;;;5.70;99.90;;;;;;4201084;28;20506;-70
2023/04/08 02:21:26;;;;;;;7.33;4.57;;;5.70;99.90;;;;;;4198415;28;20859;-70
2023/04/08 02:23:29;;;;;;;6.47;4.33;;;5.70;99.90;;;;;;4198098;28;20890;-70
2023/04/08 02:25:37;;;;;;;6.37;4.10;;;5.60;99.90;;;;;;4203042;28;20879;-71
2023/04/08 02:27:40;;;;;;;7.40;4.60;;;5.70;99.90;;;;;;4200542;28;20563;-70
2023/04/08 02:29:42;;;;;;;7.33;4.20;;;5.60;99.90;;;;;;4205560;28;20532;-70
2023/04/08 02:31:45;;;;;;;9.37;5.00;;;5.70;99.90;;;;;;4201586;28;20531;-71
2023/04/08 02:33:50;;;;;;;7.73;4.60;;;5.60;99.90;;;;;;4203931;28;20509;-70
2023/04/08 02:35:54;;;;;;;7.97;4.80;;;5.60;99.90;;;;;;4203352;28;20473;-70
2023/04/08 02:37:56;;;;;;;9.20;4.77;;;5.60;99.90;;;;;;4204381;28;20549;-71
2023/04/08 02:39:58;;;;;;;7.00;4.63;;;5.60;99.90;;;;;;4205270;28;20466;-71
2023/04/08 02:42:00;;;;;;;8.83;4.87;;;5.70;99.90;;;;;;4201819;28;21008;-70
2023/04/08 02:44:02;;;;;;;6.50;4.47;;;5.60;99.90;;;;;;4205117;28;20563;-70
2023/04/08 02:46:04;;;;;;;8.63;4.50;;;5.60;99.90;;;;;;4201871;28;20509;-71
2023/04/08 02:48:06;;;;;;;8.30;4.60;;;5.60;99.90;;;;;;4200391;28;21041;-71
2023/04/08 02:50:10;;;;;;;8.63;5.10;;;5.60;99.90;;;;;;4205325;28;20504;-70
2023/04/08 02:52:12;;;;;;;8.90;4.90;;;5.60;99.90;;;;;;4199427;28;20450;-69
2023/04/08 02:54:14;;;;;;;7.63;5.00;;;5.60;99.90;;;;;;4199123;28;20492;-70
2023/04/08 02:56:16;;;;;;;8.10;5.00;;;5.70;99.90;;;;;;4199824;28;20473;-71
2023/04/08 02:58:18;;;;;;;9.13;5.37;;;5.60;99.90;;;;;;4202392;28;20441;-70
2023/04/08 03:00:20;;;;;;;9.20;5.67;;;5.60;99.90;;;;;;4205313;28;20478;-69
2023/04/08 03:02:22;;;;;;;9.03;5.53;;;5.60;99.90;;;;;;4205905;28;20480;-70
2023/04/08 03:04:24;;;;;;;9.00;5.27;;;5.60;99.90;;;;;;4204056;28;20482;-70
2023/04/08 03:06:27;;;;;;;10.53;6.03;;;5.60;99.90;;;;;;4204359;28;20474;-70
2023/04/08 03:08:29;;;;;;;9.03;5.80;;;5.60;99.90;;;;;;4205296;28;20673;-70
2023/04/08 03:10:31;;;;;;;11.07;6.30;;;5.60;99.90;;;;;;4203663;28;20493;-70
2023/04/08 03:12:33;;;;;;;8.60;5.87;;;5.60;99.90;;;;;;4200672;28;20818;-69
2023/04/08 03:14:35;;;;;;;10.43;6.27;;;5.60;99.90;;;;;;4201924;28;20482;-71
2023/04/08 03:16:37;;;;;;;9.40;5.87;;;5.60;99.90;;;;;;4198726;28;20504;-69
2023/04/08 03:18:39;;;;;;;12.97;6.57;;;5.60;99.90;;;;;;4199896;28;20534;-70
2023/04/08 03:20:41;;;;;;;13.70;5.93;;;5.60;99.90;;;;;;4200526;28;21018;-69
2023/04/08 03:22:44;;;;;;;11.10;6.27;;;5.60;99.90;;;;;;4203477;28;20544;-69
2023/04/08 03:24:46;;;;;;;10.10;5.67;;;5.60;99.90;;;;;;4205933;28;20805;-69
2023/04/08 03:26:48;;;;;;;10.50;5.80;;;5.60;99.90;;;;;;4206822;28;20474;-70
2023/04/08 03:28:50;;;;;;;10.43;5.60;;;5.60;99.90;;;;;;4200046;28;20450;-70
2023/04/08 03:30:52;;;;;;;9.57;5.47;;;5.60;99.90;;;;;;4202922;28;21021;-71
2023/04/08 03:32:53;;;;;;;11.00;5.73;;;5.60;99.90;;;;;;4207035;28;20615;-69
2023/04/08 03:34:55;;;;;;;8.90;5.30;;;5.50;99.90;;;;;;4199647;28;20550;-70
2023/04/08 03:36:57;;;;;;;10.30;5.70;;;5.50;99.90;;;;;;4203994;28;20479;-69
2023/04/08 03:39:02;;;;;;;9.60;5.43;;;5.50;99.90;;;;;;4200124;28;20499;-69
2023/04/08 03:41:04;;;;;;;11.27;5.90;;;5.50;99.90;;;;;;4202632;28;20473;-70
2023/04/08 03:43:07;;;;;;;9.47;4.90;;;5.50;99.90;;;;;;4201313;28;20834;-68
2023/04/08 03:45:09;;;;;;;8.87;5.00;;;5.50;99.90;;;;;;4202171;28;20469;-69
2023/04/08 03:47:11;;;;;;;8.43;5.10;;;5.50;99.90;;;;;;4202689;28;20505;-69
2023/04/08 03:49:13;;;;;;;9.53;4.73;;;5.50;99.90;;;;;;4199161;28;20494;-69
2023/04/08 03:51:16;;;;;;;9.90;5.17;;;5.60;99.90;;;;;;4205268;28;20449;-69
2023/04/08 03:53:18;;;;;;;9.50;5.03;;;5.60;99.90;;;;;;4198023;28;20488;-69
2023/04/08 03:55:21;;;;;;;9.30;5.30;;;5.50;99.90;;;;;;4208137;28;20454;-69
2023/04/08 03:57:24;;;;;;;8.43;5.10;;;5.50;99.90;;;;;;4202550;28;20993;-69
2023/04/08 03:59:26;;;;;;;9.47;5.30;;;5.50;99.90;;;;;;4204587;28;20482;-69
2023/04/08 04:01:29;;;;;;;11.10;5.47;;;5.60;99.90;;;;;;4204996;28;20456;-69
2023/04/08 04:03:31;;;;;;;12.43;5.27;;;5.60;99.90;;;;;;4195129;28;20854;-70
2023/04/08 04:05:33;;;;;;;7.60;4.60;;;5.50;99.90;;;;;;4207572;28;20459;-71
2023/04/08 04:07:35;;;;;;;9.00;5.00;;;5.60;99.90;;;;;;4201294;28;20448;-71
2023/04/08 04:09:37;;;;;;;9.67;5.20;;;5.60;99.90;;;;;;4206886;28;20453;-70
2023/04/08 04:11:40;;;;;;;9.20;5.07;;;5.60;99.90;;;;;;4196961;28;20949;-69
2023/04/08 04:13:42;;;;;;;9.43;5.27;;;5.60;99.90;;;;;;4203006;28;20484;-70
2023/04/08 04:15:44;;;;;;;12.40;5.93;;;5.60;99.90;;;;;;4200022;28;20486;-71
2023/04/08 04:17:49;;;;;;;8.77;5.17;;;5.60;99.90;;;;;;4201965;28;21085;-71
2023/04/08 04:19:51;;;;;;;8.70;4.80;;;5.50;99.90;;;;;;4197378;28;20473;-70
2023/04/08 04:21:53;;;;;;;8.67;4.70;;;5.50;99.90;;;;;;4204784;28;20454;-70
2023/04/08 04:23:55;;;;;;;8.40;4.30;;;5.50;99.90;;;;;;4204744;28;21064;-70
2023/04/08 04:25:57;;;;;;;8.07;4.50;;;5.50;99.90;;;;;;4196421;28;20561;-70
2023/04/08 04:28:01;;;;;;;8.40;4.10;;;5.50;99.90;;;;;;4200390;28;20487;-70
2023/04/08 04:30:04;;;;;;;8.50;4.47;;;5.50;99.90;;;;;;4204273;28;20519;-70
2023/04/08 04:32:06;;;;;;;6.93;4.00;;;5.50;99.90;;;;;;4205436;28;20438;-71
2023/04/08 04:34:08;;;;;;;7.37;4.07;;;5.50;99.90;;;;;;4203304;28;20442;-71
2023/04/08 04:36:10;;;;;;;8.87;4.43;;;5.50;99.90;;;;;;4204558;28;20480;-70
2023/04/08 04:38:12;;;;;;;8.97;4.57;;;5.50;99.90;;;;;;4206293;28;20451;-70
2023/04/08 04:40:14;;;;;;;8.33;4.43;;;5.50;99.90;;;;;;4203851;28;20878;-70
2023/04/08 04:42:16;;;;;;;8.23;4.30;;;5.50;99.90;;;;;;4204078;28;20484;-70
2023/04/08 04:44:19;;;;;;;9.40;4.10;;;5.50;99.90;;;;;;4204980;28;20488;-69
2023/04/08 04:46:21;;;;;;;8.47;4.30;;;5.50;99.90;;;;;;4205026;28;21256;-71
2023/04/08 04:48:23;;;;;;;8.03;4.53;;;5.50;99.90;;;;;;4209966;28;20457;-70
2023/04/08 04:50:25;;;;;;;7.43;3.90;;;5.50;99.90;;;;;;4206103;28;20456;-70
2023/04/08 04:52:27;;;;;;;10.90;5.03;;;5.50;99.90;;;;;;4203326;28;20504;-71
2023/04/08 04:54:29;;;;;;;7.67;4.00;;;5.50;99.90;;;;;;4204193;28;20449;-70
2023/04/08 04:56:31;;;;;;;9.30;4.27;;;5.50;99.90;;;;;;4207115;28;20468;-69
2023/04/08 04:58:33;;;;;;;10.17;4.90;;;5.50;99.90;;;;;;4202946;28;20458;-71
2023/04/08 05:00:36;;;;;;;8.30;3.97;;;5.50;99.90;;;;;;4202894;28;20495;-70
2023/04/08 05:02:38;;;;;;;7.53;4.40;;;5.50;99.90;;;;;;4211642;28;20978;-69
2023/04/08 05:04:40;;;;;;;8.43;4.47;;;5.50;99.90;;;;;;4209991;28;20483;-69
2023/04/08 05:06:42;;;;;;;6.73;4.13;;;5.70;99.90;;;;;;4205956;28;20534;-71
2023/04/08 05:08:44;;;;;;;8.90;4.20;;;5.60;99.90;;;;;;4203128;28;20480;-70
2023/04/08 05:10:46;;;;;;;9.53;4.60;;;5.50;99.90;;;;;;4202301;28;20464;-70
2023/04/08 05:12:48;;;;;;;7.63;4.07;;;5.50;99.90;;;;;;4204001;28;20462;-70
2023/04/08 05:14:50;;;;;;;9.97;4.57;;;5.50;99.90;;;;;;4205169;28;20458;-70
2023/04/08 05:16:53;;;;;;;7.00;3.83;;;5.50;99.90;;;;;;4207876;28;20477;-70
2023/04/08 05:18:55;;;;;;;6.67;4.00;;;5.50;99.90;;;;;;4200478;28;20543;-70
2023/04/08 05:20:57;;;;;;;6.03;3.60;;;5.50;99.90;;;;;;4206005;28;20484;-69
2023/04/08 05:22:59;;;;;;;6.37;3.80;;;5.50;99.90;;;;;;4205828;28;20457;-69
2023/04/08 05:25:01;;;;;;;7.80;4.30;;;5.50;99.90;;;;;;4208049;28;20946;-70
2023/04/08 05:27:03;;;;;;;6.87;3.70;;;5.50;99.90;;;;;;4204549;28;20516;-70
2023/04/08 05:29:05;;;;;;;6.40;3.90;;;5.50;99.90;;;;;;4206243;28;21268;-70
2023/04/08 05:31:06;;;;;;;8.73;4.40;;;5.50;99.90;;;;;;4208331;28;20458;-69
2023/04/08 05:33:10;;;;;;;9.57;3.90;;;5.50;99.90;;;;;;4200552;28;20962;-70
2023/04/08 05:35:12;;;;;;;9.07;3.90;;;5.50;99.90;;;;;;4202615;28;20502;-71
2023/04/08 05:37:14;;;;;;;7.33;4.03;;;5.50;99.90;;;;;;4204740;28;20477;-70
2023/04/08 05:39:16;;;;;;;6.67;4.17;;;5.50;99.90;;;;;;4200203;28;21226;-69
2023/04/08 05:41:18;;;;;;;7.47;4.20;;;5.50;99.90;;;;;;4208071;28;20496;-70
2023/04/08 05:43:20;;;;;;;7.20;3.87;;;5.50;99.90;;;;;;4199882;28;20454;-70
2023/04/08 05:45:22;;;;;;;6.17;3.83;;;5.50;99.90;;;;;;4204930;28;20454;-70
2023/04/08 05:47:24;;;;;;;6.70;3.80;;;5.50;99.90;;;;;;4203039;28;20520;-70
2023/04/08 05:49:27;;;;;;;6.37;3.90;;;5.50;99.90;;;;;;4202076;28;20515;-69
2023/04/08 05:51:29;;;;;;;7.10;3.90;;;5.60;99.90;;;;;;4211961;28;20454;-70
2023/04/08 05:53:31;;;;;;;7.57;3.97;;;5.50;99.90;;;;;;4204902;28;20469;-70
2023/04/08 05:55:33;;;;;;;7.43;4.30;;;5.60;99.90;;;;;;4201704;28;20537;-70
2023/04/08 05:57:35;;;;;;;6.50;3.60;;;5.60;99.90;;;;;;4205719;28;20820;-70
2023/04/08 05:59:37;;;;;;;8.20;4.53;;;5.60;99.90;;;;;;4205030;28;20457;-70
2023/04/08 06:01:39;;;;;;;7.50;4.03;;;5.60;99.90;;;;;;4202098;28;20447;-71
2023/04/08 06:03:41;;;;;;;7.10;3.60;;;5.60;99.90;;;;;;4198094;28;20822;-70
2023/04/08 06:05:44;;;;;;;7.90;3.70;;;5.60;99.90;;;;;;4207915;28;20449;-70
2023/04/08 06:07:46;;;;;;;7.43;3.87;;;5.60;99.90;;;;;;4207261;28;20499;-70
2023/04/08 06:09:48;;;;;;;6.47;3.80;;;5.60;99.90;;;;;;4201981;28;21004;-70
2023/04/08 06:11:50;;;;;;;7.93;4.33;;;5.60;99.90;;;;;;4208711;28;20462;-69
2023/04/08 06:13:52;;;;;;;7.93;4.40;;;5.60;99.90;;;;;;4202254;28;20511;-70
2023/04/08 06:15:54;;;;;;;7.17;4.00;;;5.60;99.90;;;;;;4207741;28;20478;-71
2023/04/08 06:17:56;;;;;;;7.20;4.00;;;5.60;99.90;;;;;;4205253;28;20449;-70
2023/04/08 06:19:58;;;;;;;6.73;4.03;;;5.60;99.90;;;;;;4204382;28;20532;-70
2023/04/08 06:22:01;;;;;;;11.47;5.43;;;5.60;99.90;;;;;;4210260;28;20477;-70
2023/04/08 06:24:06;;;;;;;10.87;5.00;;;5.60;99.90;;;;;;4202536;28;20997;-70
2023/04/08 06:26:08;;;;;;;12.13;4.63;;;5.60;99.90;;;;;;4204894;28;20475;-70
2023/04/08 06:28:10;;;;;;;8.87;4.40;;;5.60;99.90;;;;;;4203226;28;20492;-70
2023/04/08 06:30:23;;;;;;;9.73;4.63;;;5.70;99.90;;;;;;4205208;28;20453;-69
2023/04/08 06:32:26;;;;;;;9.80;4.30;;;5.60;99.90;;;;;;4204724;28;20458;-69
2023/04/08 06:34:30;;;;;;;10.53;4.23;;;5.70;99.90;;;;;;4206809;28;20441;-69
2023/04/08 06:36:34;;;;;;;8.77;4.70;;;5.70;99.90;;;;;;4203380;28;20559;-69
2023/04/08 06:38:37;;;;;;;13.33;5.57;;;5.70;99.90;;;;;;4206111;28;20442;-69
2023/04/08 06:40:39;;;;;;;11.77;5.43;;;5.70;99.90;;;;;;4196367;28;20501;-71
2023/04/08 06:42:43;;;;;;;11.33;5.20;;;5.70;99.90;;;;;;4205666;28;21076;-70
2023/04/08 06:44:45;;;;;;;12.80;5.33;;;5.70;99.90;;;;;;4205362;28;20529;-69
2023/04/08 06:46:47;;;;;;;10.53;5.40;;;5.70;99.90;;;;;;4199357;28;21098;-68
2023/04/08 06:48:49;;;;;;;13.80;6.33;;;5.70;99.90;;;;;;4200125;28;20633;-69
2023/04/08 06:50:50;;;;;;;13.97;6.30;;;5.70;99.90;;;;;;4202802;28;21045;-69
2023/04/08 06:52:53;;;;;;;16.43;6.67;;;5.80;99.90;;;;;;4200950;28;20885;-70
2023/04/08 06:54:57;;;;;;;14.80;6.83;;;5.80;99.90;;;;;;4201753;28;20442;-69
2023/04/08 06:56:59;;;;;;;14.97;6.70;;;5.80;99.90;;;;;;4203401;28;20473;-69
2023/04/08 06:59:01;;;;;;;16.00;6.80;;;5.80;99.90;;;;;;4198832;28;20450;-69
2023/04/08 07:01:03;;;;;;;15.27;7.30;;;5.80;99.90;;;;;;4202264;28;20865;-69
2023/04/08 07:03:05;;;;;;;15.60;6.50;;;5.90;99.90;;;;;;4197076;28;20832;-71
2023/04/08 07:05:07;;;;;;;14.50;7.30;;;5.90;99.90;;;;;;4200781;28;20498;-72
2023/04/08 07:07:09;;;;;;;15.70;7.33;;;5.90;99.90;;;;;;4200467;28;20844;-70
2023/04/08 07:09:11;;;;;;;14.83;6.93;;;5.90;99.90;;;;;;4205647;28;20473;-70
2023/04/08 07:11:15;;;;;;;14.73;6.93;;;5.90;99.90;;;;;;4200449;28;20991;-70
2023/04/08 07:13:17;;;;;;;14.87;7.50;;;6.00;99.90;;;;;;4203834;28;20483;-71
2023/04/08 07:15:19;;;;;;;15.40;6.77;;;6.00;99.90;;;;;;4200857;28;20458;-70
2023/04/08 07:17:21;;;;;;;15.23;7.47;;;6.10;99.90;;;;;;4203008;28;20470;-70
2023/04/08 07:19:23;;;;;;;13.87;6.97;;;6.10;99.90;;;;;;4203165;28;20459;-70
2023/04/08 07:21:25;;;;;;;18.40;7.83;;;6.10;99.90;;;;;;4206452;28;20460;-71
2023/04/08 07:23:27;;;;;;;17.83;8.03;;;6.10;99.90;;;;;;4199608;28;20455;-70
2023/04/08 07:25:29;;;;;;;19.00;8.27;;;6.20;99.90;;;;;;4201666;28;20482;-71
2023/04/08 07:27:33;;;;;;;18.17;7.97;;;6.20;99.90;;;;;;4200282;28;20490;-71
2023/04/08 07:29:35;;;;;;;18.33;8.83;;;6.30;99.90;;;;;;4209040;28;20442;-70
2023/04/08 07:31:37;;;;;;;19.93;9.00;;;6.30;99.90;;;;;;4201347;28;20469;-71
2023/04/08 07:33:39;;;;;;;19.00;8.97;;;6.30;99.90;;;;;;4201122;28;20462;-71
2023/04/08 07:35:41;;;;;;;18.33;8.77;;;6.30;99.90;;;;;;4201160;28;20458;-71
2023/04/08 07:37:43;;;;;;;17.53;8.43;;;6.40;99.90;;;;;;4203822;28;20545;-69
2023/04/08 07:39:45;;;;;;;19.33;9.17;;;6.40;99.90;;;;;;4201867;28;20448;-70
2023/04/08 07:41:47;;;;;;;19.90;9.27;;;6.40;99.90;;;;;;4203790;28;20485;-71
2023/04/08 07:43:50;;;;;;;19.37;9.50;;;6.50;99.90;;;;;;4199842;28;20557;-71
2023/04/08 07:45:52;;;;;;;21.43;10.13;;;6.50;99.90;;;;;;4199082;28;21270;-70
2023/04/08 07:47:54;;;;;;;20.13;9.43;;;6.50;99.90;;;;;;4201248;28;20445;-70
2023/04/08 07:49:56;;;;;;;22.43;10.13;;;6.50;99.90;;;;;;4202846;28;20450;-70
2023/04/08 07:51:58;;;;;;;19.37;9.37;;;6.60;99.90;;;;;;4197900;28;20884;-70
2023/04/08 07:54:00;;;;;;;19.00;9.53;;;6.70;99.90;;;;;;4202852;28;20463;-70
2023/04/08 07:56:03;;;;;;;19.30;9.17;;;6.70;99.90;;;;;;4203065;28;20474;-71
2023/04/08 07:58:05;;;;;;;21.57;9.23;;;6.80;99.90;;;;;;4203356;28;20459;-71
2023/04/08 08:00:09;;;;;;;23.27;10.07;;;6.80;99.90;;;;;;4199074;28;20486;-69
2023/04/08 08:02:11;;;;;;;20.17;10.07;;;6.80;99.90;;;;;;4205695;28;20458;-70
2023/04/08 08:04:13;;;;;;;19.33;9.03;;;6.90;99.90;;;;;;4198829;28;20918;-70
2023/04/08 08:06:15;;;;;;;22.63;10.63;;;6.90;99.90;;;;;;4203483;28;20473;-69
2023/04/08 08:08:17;;;;;;;21.73;10.23;;;7.00;99.90;;;;;;4201140;28;20942;-70
2023/04/08 08:10:19;;;;;;;20.10;9.90;;;7.00;99.90;;;;;;4200476;28;20514;-69
2023/04/08 08:12:21;;;;;;;19.67;9.50;;;7.00;99.90;;;;;;4202133;28;20453;-69
2023/04/08 08:14:25;;;;;;;24.13;11.33;;;7.10;99.90;;;;;;4204661;28;20451;-70
2023/04/08 08:16:30;;;;;;;23.63;11.23;;;7.10;99.90;;;;;;4202307;28;20467;-69
2023/04/08 08:18:33;;;;;;;23.47;11.33;;;7.20;99.90;;;;;;4200534;28;20946;-69
2023/04/08 08:20:36;;;;;;;23.00;11.47;;;7.20;99.90;;;;;;4208606;28;20508;-69
2023/04/08 08:22:38;;;;;;;25.87;12.10;;;7.20;99.90;;;;;;4210543;28;20966;-70
2023/04/08 08:24:40;;;;;;;24.87;11.67;;;7.30;99.90;;;;;;4198915;28;20902;-70
2023/04/08 08:26:43;;;;;;;24.70;12.83;;;7.30;99.90;;;;;;4200515;28;20476;-70
2023/04/08 08:28:45;;;;;;;27.57;12.93;;;7.30;99.90;;;;;;4205073;28;20451;-69
2023/04/08 08:30:48;;;;;;;24.63;11.90;;;7.40;99.90;;;;;;4196591;28;21038;-69
2023/04/08 08:32:51;;;;;;;24.37;11.93;;;7.40;99.90;;;;;;4201231;28;20573;-69
2023/04/08 08:34:53;;;;;;;26.80;13.17;;;7.50;99.90;;;;;;4198495;28;20482;-69
2023/04/08 08:36:55;;;;;;;27.03;13.43;;;7.60;99.90;;;;;;4202371;28;20221;-69
2023/04/08 08:38:57;;;;;;;24.07;12.70;;;7.60;99.90;;;;;;4202915;28;20494;-69
2023/04/08 08:41:00;;;;;;;25.43;12.40;;;7.70;99.90;;;;;;4198718;28;20217;-70
2023/04/08 08:43:02;;;;;;;27.50;12.23;;;7.80;99.90;;;;;;4200445;28;20460;-69
2023/04/08 08:45:05;;;;;;;27.23;12.90;;;7.80;99.90;;;;;;4198488;28;20249;-70
2023/04/08 08:47:07;;;;;;;27.43;13.07;;;7.80;99.90;;;;;;4197061;28;20886;-70
2023/04/08 08:49:12;;;;;;;23.63;12.07;;;7.90;99.90;;;;;;4210141;28;20264;-69
2023/04/08 08:51:14;;;;;;;24.03;12.27;;;7.90;99.90;;;;;;4201980;28;20729;-70
2023/04/08 08:53:16;;;;;;;25.40;13.03;;;8.00;99.90;;;;;;4202581;28;20662;-69
2023/04/08 08:55:19;;;;;;;26.03;12.83;;;8.00;99.90;;;;;;4201873;28;20538;-70
2023/04/08 08:57:21;;;;;;;31.30;15.73;;;8.10;99.90;;;;;;4200729;28;20224;-69
2023/04/08 08:59:23;;;;;;;31.60;16.60;;;8.10;99.90;;;;;;4196200;28;20210;-70
2023/04/08 09:01:32;;;;;;;27.27;14.37;;;8.10;99.90;;;;;;4200632;28;20205;-70
2023/04/08 09:03:34;;;;;;;30.63;15.37;;;8.20;99.90;;;;;;4198762;28;20581;-70
2023/04/08 09:05:48;;;;;;;27.57;13.10;;;8.20;99.90;;;;;;4195701;28;20210;-70
2023/04/08 09:07:50;;;;;;;27.43;13.50;;;8.20;99.90;;;;;;4199076;28;20240;-69
2023/04/08 09:09:52;;;;;;;25.10;13.63;;;8.20;99.90;;;;;;4202286;28;20202;-70
2023/04/08 09:12:03;;;;;;;25.83;12.83;;;8.30;99.90;;;;;;4200747;28;20264;-69
2023/04/08 09:14:06;;;;;;;29.40;14.17;;;8.30;99.90;;;;;;4200898;28;20288;-69
2023/04/08 09:16:10;;;;;;;26.83;13.70;;;8.40;99.90;;;;;;4200462;28;20221;-69
2023/04/08 09:18:22;;;;;;;28.23;14.13;;;8.50;99.90;;;;;;4202971;28;20229;-71
2023/04/08 09:20:24;;;;;;;27.07;13.93;;;8.50;99.90;;;;;;4203253;28;20297;-70
2023/04/08 09:22:27;;;;;;;24.93;13.53;;;8.60;99.90;;;;;;4204355;28;20248;-70
2023/04/08 09:24:30;;;;;;;28.00;13.60;;;8.60;99.90;;;;;;4203916;28;20233;-70
2023/04/08 09:26:32;;;;;;;27.37;14.97;;;8.70;99.90;;;;;;4206630;28;20222;-70
2023/04/08 09:28:34;;;;;;;28.43;14.63;;;8.70;99.90;;;;;;4202184;28;20202;-70
2023/04/08 09:30:39;;;;;;;27.93;14.40;;;8.70;99.90;;;;;;4201487;28;20204;-70
2023/04/08 09:32:48;;;;;;;27.83;13.97;;;8.80;99.90;;;;;;4205840;28;20759;-70
2023/04/08 09:34:50;;;;;;;27.47;14.00;;;8.80;99.90;;;;;;4213981;28;20609;-71
2023/04/08 09:36:53;;;;;;;27.00;13.90;;;8.90;99.90;;;;;;4199836;28;20760;-71
2023/04/08 09:38:57;;;;;;;28.90;14.57;;;8.90;99.90;;;;;;4203882;28;20743;-70
2023/04/08 09:41:02;;;;;;;28.30;14.60;;;8.90;99.90;;;;;;4201110;28;20296;-70
2023/04/08 09:43:08;;;;;;;26.20;13.60;;;8.80;99.90;;;;;;4207169;28;20210;-70
2023/04/08 09:45:12;;;;;;;26.27;13.93;;;8.80;99.90;;;;;;4206896;28;20222;-71
2023/04/08 09:47:20;;;;;;;24.80;13.77;;;8.80;99.90;;;;;;4210253;28;20225;-71
2023/04/08 09:49:27;;;;;;;25.63;13.57;;;8.80;99.90;;;;;;4203550;28;20207;-70
2023/04/08 09:51:33;;;;;;;27.70;14.13;;;8.80;99.90;;;;;;4197820;28;20621;-71
2023/04/08 09:53:38;;;;;;;27.73;14.50;;;8.80;99.90;;;;;;4206224;28;20212;-71
2023/04/08 09:55:45;;;;;;;26.50;13.97;;;8.80;99.90;;;;;;4204290;28;20281;-70
2023/04/08 09:57:52;;;;;;;27.77;14.80;;;8.80;99.90;;;;;;4201628;28;20210;-71
2023/04/08 10:00:02;;;;;;;30.90;15.63;;;8.80;99.90;;;;;;4199339;28;20217;-71
2023/04/08 10:02:08;;;;;;;35.33;15.87;;;8.70;99.90;;;;;;4207067;28;20293;-70
2023/04/08 10:04:14;;;;;;;28.97;15.57;;;8.70;99.90;;;;;;4202335;28;20207;-71
2023/04/08 10:06:17;;;;;;;31.03;15.50;;;8.80;99.90;;;;;;4205761;28;20234;-70
2023/04/08 10:08:20;;;;;;;30.43;15.33;;;8.80;99.90;;;;;;4209362;28;20284;-71
2023/04/08 10:10:23;;;;;;;28.57;15.40;;;8.80;99.90;;;;;;4206222;28;20209;-70
2023/04/08 10:12:26;;;;;;;26.37;14.13;;;8.80;99.90;;;;;;4207835;28;20280;-71
2023/04/08 10:14:28;;;;;;;29.07;15.00;;;8.80;99.90;;;;;;4204703;28;20296;-70
2023/04/08 10:16:30;;;;;;;28.37;14.53;;;8.80;99.90;;;;;;4205127;28;20711;-71
2023/04/08 10:18:36;;;;;;;30.17;15.70;;;8.70;99.90;;;;;;4210896;28;20965;-71
2023/04/08 10:20:45;;;;;;;31.43;15.97;;;8.70;99.90;;;;;;4213497;28;20534;-70
2023/04/08 10:22:48;;;;;;;30.00;15.50;;;8.80;99.90;;;;;;4202598;28;20197;-71
2023/04/08 10:25:24;;;;;;;33.23;15.93;;;8.70;99.90;;;;;;4196538;28;20606;-71
2023/04/08 10:27:40;;;;;;;30.37;15.33;;;8.80;99.90;;;;;;4208124;28;20225;-71
2023/04/08 10:29:42;;;;;;;27.73;14.90;;;8.80;99.90;;;;;;4204465;28;20672;-71
2023/04/08 10:31:45;;;;;;;28.17;14.77;;;8.80;99.90;;;;;;4206381;28;20238;-71
2023/04/08 10:33:47;;;;;;;28.30;15.33;;;8.90;99.90;;;;;;4205990;28;20228;-70
2023/04/08 10:35:54;;;;;;;33.63;16.67;;;8.80;99.90;;;;;;4203507;28;20218;-69
2023/04/08 10:37:56;;;;;;;33.13;17.13;;;8.80;99.90;;;;;;4203150;28;20249;-72
2023/04/08 10:39:58;;;;;;;32.80;16.70;;;8.80;99.90;;;;;;4200400;28;20213;-70
2023/04/08 10:42:02;;;;;;;35.83;17.57;;;8.90;99.90;;;;;;4200819;28;20213;-70
2023/04/08 10:44:14;;;;;;;35.87;17.33;;;8.90;99.90;;;;;;4199320;28;20202;-71